Time;durP1;ratioP1;P1;durP2;ratioP2;P2;SDS_P1;SDS_P2;PMS_P1;PMS_P2;Temp;Humidity;BMP_temperature;BMP_pressure;BME280_temperature;BME280_humidity;BME280_pressure;Samples;Min_cycle;Max_cycle;Signal;HPM_P1;HPM_P2
2023/06/14 00:01:15;;;;;;;4.60;4.23;;;17.80;59.70;;;;;;6074176;23;20539;-71
2023/06/14 00:03:42;;;;;;;5.00;4.50;;;17.70;59.90;;;;;;6080578;23;20426;-71
2023/06/14 00:06:11;;;;;;;4.83;4.43;;;17.80;60.00;;;;;;6073190;23;20439;-71
2023/06/14 00:08:38;;;;;;;4.40;4.00;;;17.70;60.40;;;;;;6084942;23;20438;-71
2023/06/14 00:11:05;;;;;;;4.90;4.50;;;17.70;60.80;;;;;;6076470;23;20458;-71
2023/06/14 00:13:32;;;;;;;5.40;4.80;;;17.60;60.90;;;;;;6081058;23;20953;-71
2023/06/14 00:15:59;;;;;;;4.80;4.40;;;17.60;60.80;;;;;;6081645;23;20918;-72
2023/06/14 00:18:29;;;;;;;4.90;4.40;;;17.50;60.60;;;;;;6077914;23;20785;-72
2023/06/14 00:20:56;;;;;;;4.37;4.07;;;17.50;61.20;;;;;;6078975;23;20943;-72
2023/06/14 00:23:25;;;;;;;4.77;4.37;;;17.50;61.10;;;;;;6074982;23;20458;-72
2023/06/14 00:25:52;;;;;;;5.30;4.90;;;17.50;61.40;;;;;;6077892;23;20511;-72
2023/06/14 00:28:20;;;;;;;4.67;4.27;;;17.40;61.70;;;;;;6084735;23;20514;-72
2023/06/14 00:30:47;;;;;;;5.10;4.33;;;17.40;61.80;;;;;;6077485;23;20557;-72
2023/06/14 00:33:14;;;;;;;5.10;4.70;;;17.30;61.90;;;;;;6082056;23;20541;-72
2023/06/14 00:35:41;;;;;;;4.63;4.23;;;17.30;62.10;;;;;;6076579;23;20442;-72
2023/06/14 00:38:08;;;;;;;4.80;4.50;;;17.30;62.10;;;;;;6080913;23;20426;-72
2023/06/14 00:40:36;;;;;;;5.00;4.60;;;17.30;62.10;;;;;;6075877;23;20445;-72
2023/06/14 00:43:04;;;;;;;4.60;4.20;;;17.20;62.20;;;;;;6081344;23;20446;-71
2023/06/14 00:45:35;;;;;;;4.90;4.50;;;17.20;62.20;;;;;;6081693;23;20509;-72
2023/06/14 00:48:03;;;;;;;4.60;4.30;;;17.20;62.50;;;;;;6078511;23;20514;-71
2023/06/14 00:50:32;;;;;;;5.17;4.70;;;17.10;62.70;;;;;;6078602;23;20466;-72
2023/06/14 00:53:00;;;;;;;4.53;4.13;;;17.10;62.90;;;;;;6080724;23;20508;-72
2023/06/14 00:55:27;;;;;;;5.10;4.60;;;17.10;63.70;;;;;;6074549;23;21046;-72
2023/06/14 00:57:56;;;;;;;4.17;3.87;;;17.00;64.00;;;;;;6082494;23;20938;-72
2023/06/14 01:00:23;;;;;;;5.07;4.67;;;17.00;64.40;;;;;;6082040;23;21056;-72
2023/06/14 01:02:50;;;;;;;5.20;4.70;;;17.00;64.70;;;;;;6079858;23;20502;-71
2023/06/14 01:05:18;;;;;;;6.57;4.90;;;17.00;64.90;;;;;;6079778;23;20435;-71
2023/06/14 01:08:08;;;;;;;4.90;4.50;;;16.90;64.90;;;;;;6076473;23;20927;-71
2023/06/14 01:10:43;;;;;;;4.70;4.30;;;16.90;64.90;;;;;;6078924;23;20500;-71
2023/06/14 01:13:19;;;;;;;5.07;4.57;;;16.90;64.90;;;;;;6077612;23;20450;-71
2023/06/14 01:15:48;;;;;;;5.10;4.70;;;16.80;64.50;;;;;;6080881;23;20434;-71
2023/06/14 01:18:17;;;;;;;4.70;4.40;;;16.80;64.40;;;;;;6079472;23;20442;-71
2023/06/14 01:20:47;;;;;;;4.87;4.47;;;16.80;64.00;;;;;;6078974;23;20489;-71
2023/06/14 01:23:16;;;;;;;4.90;4.50;;;16.70;64.10;;;;;;6080957;23;20521;-71
2023/06/14 01:25:44;;;;;;;4.83;4.53;;;16.70;64.50;;;;;;6079756;23;20489;-71
2023/06/14 01:28:12;;;;;;;5.17;4.77;;;16.70;64.60;;;;;;6078139;23;20431;-71
2023/06/14 01:30:44;;;;;;;4.87;4.50;;;16.70;64.80;;;;;;6080327;23;20481;-71
2023/06/14 01:33:13;;;;;;;7.30;4.70;;;16.60;64.70;;;;;;6076382;23;20434;-71
2023/06/14 01:35:41;;;;;;;4.63;4.20;;;16.60;65.00;;;;;;6095565;23;20438;-71
2023/06/14 01:38:08;;;;;;;5.30;4.90;;;16.60;65.30;;;;;;6083648;23;20457;-71
2023/06/14 01:40:37;;;;;;;4.90;4.50;;;16.60;64.90;;;;;;6095429;23;20829;-71
2023/06/14 01:43:06;;;;;;;5.03;4.70;;;16.60;65.20;;;;;;6089899;23;20438;-71
2023/06/14 01:45:34;;;;;;;4.70;4.40;;;16.50;64.90;;;;;;6090791;23;20492;-71
2023/06/14 01:48:02;;;;;;;5.30;4.80;;;16.50;66.10;;;;;;6088199;23;20529;-71
2023/06/14 01:50:30;;;;;;;5.33;4.93;;;16.50;66.10;;;;;;6090001;23;20541;-71
2023/06/14 01:52:57;;;;;;;4.60;4.20;;;16.50;66.40;;;;;;6084960;23;20436;-71
2023/06/14 01:55:27;;;;;;;4.77;4.40;;;16.40;66.60;;;;;;6083539;23;20934;-71
2023/06/14 01:57:56;;;;;;;4.43;4.13;;;16.40;67.10;;;;;;6085895;23;20891;-71
2023/06/14 02:00:23;;;;;;;4.93;4.53;;;16.40;67.30;;;;;;6088627;23;20488;-71
2023/06/14 02:02:50;;;;;;;5.30;4.80;;;16.40;67.50;;;;;;6088102;23;20557;-71
2023/06/14 02:05:18;;;;;;;5.63;4.67;;;16.30;67.40;;;;;;6089624;23;20470;-71
2023/06/14 02:07:46;;;;;;;4.90;4.47;;;16.40;67.60;;;;;;6089211;23;20437;-71
2023/06/14 02:10:14;;;;;;;5.30;4.80;;;16.30;67.80;;;;;;6083541;23;20461;-71
2023/06/14 02:12:42;;;;;;;5.00;4.60;;;16.30;68.10;;;;;;6090334;23;20560;-71
2023/06/14 02:15:16;;;;;;;5.90;5.30;;;16.20;68.90;;;;;;6091764;23;20435;-71
2023/06/14 02:17:44;;;;;;;5.43;5.03;;;16.20;68.50;;;;;;6085615;23;20545;-71
2023/06/14 02:20:12;;;;;;;4.97;4.50;;;16.30;68.70;;;;;;6088497;23;20458;-71
2023/06/14 02:22:39;;;;;;;5.07;4.50;;;16.20;69.00;;;;;;6088610;23;20838;-71
2023/06/14 02:25:07;;;;;;;5.53;4.90;;;16.20;69.60;;;;;;6088126;23;20521;-71
2023/06/14 02:27:34;;;;;;;5.23;4.83;;;16.20;69.70;;;;;;6086757;23;20439;-71
2023/06/14 02:30:01;;;;;;;5.00;4.70;;;16.20;70.00;;;;;;6089009;23;20461;-71
2023/06/14 02:32:31;;;;;;;6.20;5.00;;;16.10;70.00;;;;;;6087433;23;20466;-71
2023/06/14 02:34:58;;;;;;;4.83;4.43;;;16.10;69.90;;;;;;6082881;23;20445;-71
2023/06/14 02:37:25;;;;;;;5.47;5.07;;;16.10;70.50;;;;;;6087764;23;20437;-71
2023/06/14 02:39:52;;;;;;;6.67;4.90;;;16.00;70.70;;;;;;6088925;23;20458;-71
2023/06/14 02:42:20;;;;;;;5.73;5.23;;;16.00;71.00;;;;;;6080349;23;20435;-71
2023/06/14 02:44:50;;;;;;;5.13;4.60;;;16.00;71.40;;;;;;6089394;23;20472;-71
2023/06/14 02:47:18;;;;;;;5.30;4.80;;;16.00;72.10;;;;;;6087460;23;20435;-71
2023/06/14 02:49:47;;;;;;;5.10;4.70;;;16.00;72.20;;;;;;6088400;23;20450;-71
2023/06/14 02:52:14;;;;;;;4.90;4.50;;;15.90;72.30;;;;;;6079528;23;20474;-71
2023/06/14 02:54:41;;;;;;;5.30;4.90;;;15.90;72.40;;;;;;6086791;23;20430;-71
2023/06/14 02:57:08;;;;;;;5.13;4.63;;;16.00;72.80;;;;;;6086891;23;20434;-71
2023/06/14 02:59:35;;;;;;;5.70;5.20;;;15.90;72.90;;;;;;6089057;23;20576;-71
2023/06/14 03:02:03;;;;;;;5.30;4.80;;;15.90;73.20;;;;;;6090045;23;20447;-71
2023/06/14 03:04:34;;;;;;;6.27;5.20;;;15.90;73.40;;;;;;6087128;23;20503;-71
2023/06/14 03:07:08;;;;;;;5.60;5.17;;;15.80;73.70;;;;;;6084877;23;20465;-72
2023/06/14 03:09:37;;;;;;;5.60;5.10;;;15.80;73.80;;;;;;6079770;23;20966;-71
2023/06/14 03:12:04;;;;;;;5.50;4.93;;;15.80;74.10;;;;;;6093378;23;20481;-71
2023/06/14 03:14:32;;;;;;;5.30;4.80;;;15.80;74.40;;;;;;6078293;23;20435;-71
2023/06/14 03:17:00;;;;;;;5.80;5.30;;;15.80;74.50;;;;;;6084483;23;20439;-71
2023/06/14 03:19:27;;;;;;;5.90;5.30;;;15.80;74.80;;;;;;6090481;23;20854;-71
2023/06/14 03:21:56;;;;;;;5.70;4.60;;;15.80;75.00;;;;;;6081851;23;20964;-71
2023/06/14 03:24:27;;;;;;;5.50;5.03;;;15.70;75.30;;;;;;6095071;23;20440;-71
2023/06/14 03:26:55;;;;;;;5.93;5.43;;;15.70;75.40;;;;;;6087711;23;21426;-71
2023/06/14 03:29:22;;;;;;;5.10;4.63;;;15.70;76.00;;;;;;6090070;23;20466;-71
2023/06/14 03:32:00;;;;;;;5.40;4.90;;;15.70;76.30;;;;;;6086864;23;20868;-71
2023/06/14 03:34:27;;;;;;;5.27;4.73;;;15.60;76.60;;;;;;6087180;23;20529;-72
2023/06/14 03:36:54;;;;;;;5.30;4.80;;;15.60;76.90;;;;;;6086943;23;20447;-71
2023/06/14 03:39:21;;;;;;;5.43;4.93;;;15.60;77.20;;;;;;6089316;23;20426;-71
2023/06/14 03:41:50;;;;;;;6.00;5.50;;;15.60;77.20;;;;;;6088533;23;20639;-71
2023/06/14 03:44:18;;;;;;;5.70;5.20;;;15.60;77.60;;;;;;6084113;23;20534;-71
2023/06/14 03:46:46;;;;;;;5.50;5.10;;;15.50;78.10;;;;;;6095189;23;20488;-70
2023/06/14 03:49:13;;;;;;;5.73;5.27;;;15.50;78.70;;;;;;6087487;23;20445;-71
2023/06/14 03:51:40;;;;;;;5.87;5.33;;;15.50;79.40;;;;;;6086917;23;20826;-72
2023/06/14 03:54:08;;;;;;;6.70;5.93;;;15.50;79.90;;;;;;6087751;23;21056;-73
2023/06/14 03:56:35;;;;;;;5.50;5.10;;;15.50;80.30;;;;;;6089027;23;20438;-72
2023/06/14 03:59:04;;;;;;;5.83;5.23;;;15.50;80.60;;;;;;6082741;23;20438;-73
2023/06/14 04:01:33;;;;;;;5.80;5.40;;;15.60;81.20;;;;;;6079865;23;20542;-73
2023/06/14 04:04:00;;;;;;;6.20;5.70;;;15.60;81.50;;;;;;6087842;23;20438;-72
2023/06/14 04:06:32;;;;;;;7.23;5.30;;;15.50;82.20;;;;;;6080577;23;20513;-72
2023/06/14 04:09:03;;;;;;;6.00;5.37;;;15.50;81.80;;;;;;6090584;23;20430;-72
2023/06/14 04:11:30;;;;;;;5.67;5.17;;;15.40;81.50;;;;;;6087726;23;20528;-72
2023/06/14 04:13:57;;;;;;;7.13;6.43;;;15.30;81.50;;;;;;6087238;23;20438;-72
2023/06/14 04:16:25;;;;;;;8.20;6.67;;;15.30;82.80;;;;;;6080683;23;20884;-72
2023/06/14 04:18:53;;;;;;;6.23;5.73;;;15.30;83.30;;;;;;6088267;23;20899;-72
2023/06/14 04:21:20;;;;;;;6.07;5.57;;;15.30;83.60;;;;;;6088629;23;20453;-72
2023/06/14 04:23:47;;;;;;;7.30;6.27;;;15.30;84.60;;;;;;6088775;23;20925;-73
2023/06/14 04:26:14;;;;;;;6.70;6.10;;;15.40;85.80;;;;;;6084483;23;20452;-72
2023/06/14 04:28:41;;;;;;;6.60;6.10;;;15.40;85.80;;;;;;6089657;23;20461;-72
2023/06/14 04:31:09;;;;;;;6.60;6.00;;;15.50;86.70;;;;;;6087658;23;20802;-72
2023/06/14 04:33:43;;;;;;;6.10;5.30;;;15.60;87.40;;;;;;6091110;23;20470;-72
2023/06/14 04:36:11;;;;;;;5.60;5.00;;;15.60;87.20;;;;;;6087221;23;20642;-73
2023/06/14 04:38:38;;;;;;;5.67;5.13;;;15.70;87.60;;;;;;6087030;23;20517;-73
2023/06/14 04:41:05;;;;;;;6.43;5.83;;;15.80;87.20;;;;;;6088159;23;20926;-73
2023/06/14 04:43:37;;;;;;;5.97;5.37;;;15.80;86.80;;;;;;6087514;23;20508;-74
2023/06/14 04:46:10;;;;;;;5.53;5.03;;;15.90;86.50;;;;;;6086128;23;20438;-69
2023/06/14 04:48:42;;;;;;;5.50;5.00;;;16.00;86.40;;;;;;6082396;23;20439;-68
2023/06/14 04:51:10;;;;;;;6.00;5.50;;;16.00;86.20;;;;;;6084134;23;20549;-68
2023/06/14 04:53:37;;;;;;;5.87;5.37;;;16.20;86.40;;;;;;6087980;23;20490;-68
2023/06/14 04:56:04;;;;;;;6.20;5.60;;;16.30;86.00;;;;;;6089147;23;20443;-68
2023/06/14 04:58:32;;;;;;;6.17;5.57;;;16.40;85.60;;;;;;6088654;23;20473;-68
2023/06/14 05:00:59;;;;;;;5.70;5.20;;;16.60;85.00;;;;;;6087469;23;20846;-68
2023/06/14 05:03:27;;;;;;;6.40;5.60;;;16.60;84.60;;;;;;6087879;23;20430;-68
2023/06/14 05:05:56;;;;;;;5.73;5.10;;;16.70;84.20;;;;;;6089122;23;20528;-68
2023/06/14 05:08:24;;;;;;;4.90;4.60;;;16.80;84.00;;;;;;6088194;23;20935;-68
2023/06/14 05:10:51;;;;;;;5.40;4.90;;;16.90;83.50;;;;;;6083413;23;20461;-67
2023/06/14 05:13:18;;;;;;;5.20;4.70;;;17.00;83.20;;;;;;6075342;23;20462;-67
2023/06/14 05:15:45;;;;;;;6.03;5.53;;;17.10;82.70;;;;;;6078080;23;20978;-68
2023/06/14 05:18:13;;;;;;;6.33;5.20;;;17.20;82.20;;;;;;6087197;23;20442;-67
2023/06/14 05:20:41;;;;;;;7.03;5.60;;;17.40;81.90;;;;;;6088848;23;20957;-69
2023/06/14 05:23:14;;;;;;;5.20;4.70;;;17.50;81.70;;;;;;6081696;23;20943;-68
2023/06/14 05:25:43;;;;;;;6.73;5.20;;;17.60;81.20;;;;;;6077257;23;20442;-68
2023/06/14 05:28:10;;;;;;;5.63;5.13;;;17.80;81.40;;;;;;6082546;23;20545;-68
2023/06/14 05:30:39;;;;;;;6.80;5.97;;;17.90;80.70;;;;;;6084089;23;21169;-69
2023/06/14 05:33:06;;;;;;;5.77;5.10;;;18.00;80.80;;;;;;6078706;23;20492;-68
2023/06/14 05:35:33;;;;;;;5.60;5.20;;;18.10;80.70;;;;;;6085589;23;20445;-68
2023/06/14 05:38:00;;;;;;;5.43;4.93;;;18.10;80.40;;;;;;6090322;23;20786;-68
2023/06/14 05:40:29;;;;;;;5.13;4.70;;;18.20;80.30;;;;;;6088891;23;20570;-68
2023/06/14 05:42:56;;;;;;;5.23;4.83;;;18.20;79.50;;;;;;6088738;23;20431;-69
2023/06/14 05:45:23;;;;;;;5.47;5.07;;;18.30;78.80;;;;;;6089196;23;20461;-68
2023/06/14 05:47:51;;;;;;;6.40;4.97;;;18.40;78.30;;;;;;6087350;23;20521;-69
2023/06/14 05:50:18;;;;;;;5.27;4.73;;;18.40;78.20;;;;;;6086579;23;20457;-69
2023/06/14 05:52:45;;;;;;;5.40;5.00;;;18.50;78.00;;;;;;6078986;23;20474;-67
2023/06/14 05:55:12;;;;;;;5.57;5.07;;;18.50;77.90;;;;;;6086786;23;20477;-67
2023/06/14 05:57:41;;;;;;;8.30;4.93;;;18.50;77.80;;;;;;6074859;23;20436;-68
2023/06/14 06:00:14;;;;;;;5.50;5.00;;;18.60;77.50;;;;;;6073235;23;20462;-67
2023/06/14 06:02:42;;;;;;;6.80;5.30;;;18.70;77.50;;;;;;6082165;23;20440;-68
2023/06/14 06:05:09;;;;;;;5.70;5.20;;;18.70;77.40;;;;;;6076900;23;20803;-68
2023/06/14 06:07:37;;;;;;;6.20;5.63;;;18.80;77.30;;;;;;6073248;23;20434;-67
2023/06/14 06:10:05;;;;;;;5.97;5.47;;;18.90;77.30;;;;;;6082321;23;20458;-68
2023/06/14 06:12:32;;;;;;;6.30;5.50;;;19.00;77.70;;;;;;6074942;23;20459;-68
2023/06/14 06:15:01;;;;;;;5.40;4.90;;;19.00;76.90;;;;;;6077596;23;20841;-67
2023/06/14 06:17:28;;;;;;;5.27;4.87;;;19.10;76.90;;;;;;6079934;23;20518;-68
2023/06/14 06:19:55;;;;;;;5.60;5.10;;;19.20;76.30;;;;;;6078366;23;20575;-68
2023/06/14 06:22:22;;;;;;;5.57;5.07;;;19.30;76.10;;;;;;6075749;23;20521;-68
2023/06/14 06:24:50;;;;;;;5.40;4.90;;;19.30;75.50;;;;;;6077572;23;20430;-68
2023/06/14 06:27:18;;;;;;;5.87;5.07;;;19.40;75.40;;;;;;6064965;23;20447;-72
2023/06/14 06:29:45;;;;;;;5.33;4.90;;;19.40;75.10;;;;;;6081930;23;20458;-72
2023/06/14 06:32:14;;;;;;;6.00;4.40;;;19.50;74.60;;;;;;6079529;23;20438;-71
2023/06/14 06:34:41;;;;;;;5.30;4.87;;;19.50;74.30;;;;;;6081833;23;20953;-71
2023/06/14 06:37:08;;;;;;;5.40;5.00;;;19.60;73.80;;;;;;6082197;23;20440;-73
2023/06/14 06:39:35;;;;;;;6.10;5.53;;;19.60;73.60;;;;;;6066130;23;20463;-73
2023/06/14 06:42:02;;;;;;;5.30;4.80;;;19.70;73.70;;;;;;6078471;23;20512;-73
2023/06/14 06:44:29;;;;;;;6.03;5.43;;;19.80;73.70;;;;;;6067086;23;20436;-73
2023/06/14 06:46:58;;;;;;;5.97;5.30;;;19.90;73.50;;;;;;6089212;23;20430;-73
2023/06/14 06:49:26;;;;;;;5.07;4.60;;;20.00;73.30;;;;;;6081762;23;20490;-72
2023/06/14 06:52:03;;;;;;;6.23;5.43;;;20.10;73.20;;;;;;6076853;23;20434;-73
2023/06/14 06:54:31;;;;;;;5.80;5.30;;;20.10;73.50;;;;;;6065271;23;20444;-72
2023/06/14 06:56:58;;;;;;;7.80;5.03;;;20.20;73.30;;;;;;6078214;23;20450;-73
2023/06/14 06:59:25;;;;;;;6.10;5.60;;;20.30;73.10;;;;;;6079542;23;20491;-73
2023/06/14 07:01:53;;;;;;;5.90;5.40;;;20.40;73.00;;;;;;6085220;23;20442;-73
2023/06/14 07:04:19;;;;;;;9.00;5.23;;;20.40;73.20;;;;;;6069228;23;20435;-73
2023/06/14 07:06:48;;;;;;;7.67;5.30;;;20.50;73.10;;;;;;6070980;23;20437;-72
2023/06/14 07:09:15;;;;;;;7.47;5.23;;;20.60;72.50;;;;;;6076424;23;20817;-72
2023/06/14 07:11:45;;;;;;;6.03;5.53;;;20.70;72.80;;;;;;6082975;23;20783;-72
2023/06/14 07:14:12;;;;;;;5.70;5.20;;;20.80;72.70;;;;;;6079963;23;20475;-72
2023/06/14 07:16:41;;;;;;;7.83;6.20;;;20.80;72.60;;;;;;6085407;23;20470;-72
2023/06/14 07:19:08;;;;;;;7.57;6.10;;;20.90;72.80;;;;;;6071429;23;20465;-72
2023/06/14 07:21:37;;;;;;;7.27;4.83;;;21.00;72.20;;;;;;6077925;23;20445;-72
2023/06/14 07:24:07;;;;;;;6.60;5.80;;;21.00;72.50;;;;;;6077160;23;20500;-72
2023/06/14 07:26:35;;;;;;;10.03;6.07;;;21.10;72.20;;;;;;6073809;23;20442;-72
2023/06/14 07:29:02;;;;;;;5.20;4.70;;;21.20;71.80;;;;;;6072802;23;20462;-72
2023/06/14 07:31:30;;;;;;;6.20;5.20;;;21.20;71.30;;;;;;6070808;23;20444;-72
2023/06/14 07:33:57;;;;;;;5.67;5.00;;;21.40;71.10;;;;;;6079681;23;20565;-71
2023/06/14 07:36:24;;;;;;;6.13;5.60;;;21.60;71.40;;;;;;6068103;23;20439;-73
2023/06/14 07:38:52;;;;;;;7.53;5.37;;;21.80;70.70;;;;;;6072263;23;20450;-71
2023/06/14 07:41:20;;;;;;;5.47;4.73;;;22.00;70.60;;;;;;6083076;23;20462;-72
2023/06/14 07:43:47;;;;;;;6.00;5.50;;;22.20;70.00;;;;;;6072423;23;20437;-72
2023/06/14 07:46:16;;;;;;;5.50;5.00;;;22.50;69.80;;;;;;6067118;23;20442;-72
2023/06/14 07:48:43;;;;;;;6.30;5.00;;;22.80;69.10;;;;;;6080474;23;20476;-72
2023/06/14 07:51:10;;;;;;;5.43;5.00;;;23.10;68.70;;;;;;6081065;23;20434;-72
2023/06/14 07:53:37;;;;;;;5.30;4.80;;;23.30;67.20;;;;;;6073267;23;20504;-72
2023/06/14 07:56:04;;;;;;;6.10;5.13;;;23.50;67.80;;;;;;6080143;23;23245;-72
2023/06/14 07:58:33;;;;;;;4.70;4.40;;;23.80;65.80;;;;;;6084964;23;20441;-71
2023/06/14 08:01:03;;;;;;;5.27;4.87;;;23.80;66.00;;;;;;6076586;23;20469;-72
2023/06/14 08:03:30;;;;;;;4.63;4.33;;;24.00;66.60;;;;;;6076203;23;20442;-73
2023/06/14 08:05:57;;;;;;;5.33;4.83;;;24.30;65.50;;;;;;6075839;23;20797;-72
2023/06/14 08:08:25;;;;;;;5.30;4.90;;;24.60;65.50;;;;;;6086818;23;20435;-71
2023/06/14 08:10:52;;;;;;;5.03;4.63;;;25.00;65.30;;;;;;6079479;23;20451;-73
2023/06/14 08:13:19;;;;;;;5.43;5.00;;;25.40;64.00;;;;;;6063794;23;20461;-72
2023/06/14 08:15:47;;;;;;;5.47;5.07;;;25.80;63.50;;;;;;6085167;23;20442;-72
2023/06/14 08:18:14;;;;;;;5.50;5.00;;;26.10;62.90;;;;;;6068326;23;20442;-75
2023/06/14 08:20:42;;;;;;;5.70;5.20;;;26.40;62.70;;;;;;6082483;23;20592;-72
2023/06/14 08:23:09;;;;;;;6.70;6.10;;;26.50;61.50;;;;;;6075767;23;20457;-74
2023/06/14 08:25:37;;;;;;;6.53;5.90;;;26.60;61.90;;;;;;6080129;23;20929;-73
2023/06/14 08:28:06;;;;;;;5.40;5.00;;;26.60;61.40;;;;;;6075029;23;20457;-84
2023/06/14 08:30:33;;;;;;;5.10;4.70;;;26.60;61.20;;;;;;6084965;23;20453;-73
2023/06/14 08:33:02;;;;;;;5.33;4.93;;;26.80;61.10;;;;;;6065150;23;21760;-73
2023/06/14 08:35:29;;;;;;;5.57;5.10;;;27.10;59.90;;;;;;6071568;23;20919;-73
2023/06/14 08:37:56;;;;;;;5.33;4.93;;;27.30;59.70;;;;;;6087037;23;20441;-72
2023/06/14 08:40:24;;;;;;;5.23;4.80;;;27.50;59.40;;;;;;6090276;23;20462;-73
2023/06/14 08:42:53;;;;;;;6.37;5.20;;;27.70;59.10;;;;;;6073362;23;20566;-72
2023/06/14 08:45:21;;;;;;;5.70;5.20;;;27.80;59.50;;;;;;6079784;23;20857;-72
2023/06/14 08:47:51;;;;;;;5.17;4.77;;;27.90;59.00;;;;;;6074883;23;20471;-73
2023/06/14 08:50:23;;;;;;;6.00;5.40;;;28.00;58.60;;;;;;6085284;23;20492;-72
2023/06/14 08:52:57;;;;;;;4.60;4.30;;;28.00;58.70;;;;;;6086612;23;20537;-73
2023/06/14 08:55:27;;;;;;;5.47;4.97;;;28.20;57.90;;;;;;6078804;23;20441;-72
2023/06/14 08:57:57;;;;;;;5.10;4.70;;;28.40;57.30;;;;;;6076677;23;20442;-73
2023/06/14 09:00:24;;;;;;;6.10;5.13;;;28.50;56.90;;;;;;6087090;23;20474;-73
2023/06/14 09:02:55;;;;;;;5.37;4.87;;;28.70;57.40;;;;;;6087530;23;20510;-73
2023/06/14 09:05:26;;;;;;;5.20;4.80;;;28.70;56.90;;;;;;6084013;23;20513;-73
2023/06/14 09:07:54;;;;;;;6.17;4.67;;;28.70;57.00;;;;;;6080837;23;20434;-73
2023/06/14 09:10:22;;;;;;;5.07;4.67;;;28.80;56.30;;;;;;6076265;23;20859;-73
2023/06/14 09:12:50;;;;;;;5.50;5.00;;;29.00;56.40;;;;;;6078779;23;20798;-73
2023/06/14 09:15:17;;;;;;;4.90;4.60;;;29.30;55.90;;;;;;6083759;23;20696;-74
2023/06/14 09:17:44;;;;;;;5.47;5.07;;;29.80;55.60;;;;;;6082444;23;20458;-73
2023/06/14 09:20:13;;;;;;;4.87;4.47;;;29.70;55.30;;;;;;6084450;23;20843;-73
2023/06/14 09:22:42;;;;;;;5.40;5.00;;;29.70;55.40;;;;;;6083575;23;20438;-73
2023/06/14 09:25:11;;;;;;;5.40;5.00;;;29.70;54.90;;;;;;6077985;23;20443;-74
2023/06/14 09:27:40;;;;;;;5.33;5.03;;;29.90;54.80;;;;;;6067169;23;20450;-73
2023/06/14 09:30:10;;;;;;;5.00;4.60;;;29.80;54.70;;;;;;6082626;23;20454;-73
2023/06/14 09:32:39;;;;;;;5.13;4.70;;;29.90;54.80;;;;;;6073494;23;21019;-73
2023/06/14 09:35:07;;;;;;;5.77;5.30;;;30.10;54.60;;;;;;6080649;23;20557;-73
2023/06/14 09:37:37;;;;;;;5.63;5.23;;;30.20;54.10;;;;;;6076846;23;20426;-74
2023/06/14 09:40:09;;;;;;;5.30;4.90;;;30.10;53.70;;;;;;6086708;23;20462;-74
2023/06/14 11:38:28;;;;;;;4.87;4.37;;;29.80;44.20;;;;;;6132637;23;20599;-70
2023/06/14 11:41:00;;;;;;;7.60;3.90;;;29.70;45.10;;;;;;6113523;23;20457;-70
2023/06/14 11:43:29;;;;;;;4.63;4.23;;;29.90;44.80;;;;;;6105406;23;20428;-74
2023/06/14 11:45:56;;;;;;;4.93;4.43;;;30.30;44.70;;;;;;6102940;23;22063;-71
2023/06/14 11:48:24;;;;;;;4.13;3.73;;;30.80;45.00;;;;;;6086379;23;20454;-70
2023/06/14 11:50:52;;;;;;;7.53;4.00;;;31.40;44.40;;;;;;6102002;23;20455;-70
2023/06/14 11:53:19;;;;;;;4.10;3.70;;;32.00;43.40;;;;;;6092546;23;20437;-71
2023/06/14 11:55:48;;;;;;;4.00;3.70;;;32.50;42.90;;;;;;6108072;23;21021;-71
2023/06/14 11:58:15;;;;;;;4.63;3.40;;;32.50;42.10;;;;;;6093119;23;20480;-71
2023/06/14 12:00:43;;;;;;;3.93;3.53;;;32.10;42.80;;;;;;6103475;23;20445;-72
2023/06/14 12:03:12;;;;;;;4.20;3.80;;;31.70;43.00;;;;;;6104269;23;20434;-71
2023/06/14 12:05:39;;;;;;;4.30;3.90;;;31.20;42.40;;;;;;6099809;23;20436;-71
2023/06/14 12:08:08;;;;;;;4.53;4.23;;;31.30;43.30;;;;;;6104848;23;20468;-71
2023/06/14 12:10:43;;;;;;;4.13;3.83;;;31.50;43.60;;;;;;6114306;23;20548;-72
2023/06/14 12:13:12;;;;;;;3.70;3.40;;;31.80;43.20;;;;;;6112873;23;20521;-71
2023/06/14 12:15:39;;;;;;;5.30;4.00;;;31.70;42.30;;;;;;6103222;23;20434;-71
2023/06/14 12:18:08;;;;;;;5.00;3.93;;;31.40;42.90;;;;;;6100579;23;20473;-71
2023/06/14 12:20:36;;;;;;;4.13;3.83;;;31.60;43.20;;;;;;6094381;23;20433;-72
2023/06/14 12:23:05;;;;;;;4.63;4.07;;;31.70;43.50;;;;;;6103590;23;20440;-72
2023/06/14 12:25:35;;;;;;;4.23;3.93;;;31.70;43.70;;;;;;6105273;23;20441;-72
2023/06/14 12:28:06;;;;;;;6.90;3.60;;;31.60;43.10;;;;;;6118096;23;20552;-72
2023/06/14 12:30:36;;;;;;;6.47;4.20;;;31.40;43.60;;;;;;6114673;23;20490;-72
2023/06/14 12:33:04;;;;;;;4.30;3.90;;;31.40;43.90;;;;;;6109299;23;20437;-71
2023/06/14 12:35:32;;;;;;;4.90;4.40;;;31.70;44.70;;;;;;6105728;23;21037;-72
2023/06/14 12:37:59;;;;;;;4.47;4.07;;;32.20;43.80;;;;;;6096774;23;20998;-71
2023/06/14 12:40:27;;;;;;;4.00;3.57;;;32.70;43.00;;;;;;6110247;23;20464;-72
2023/06/14 12:42:54;;;;;;;4.20;3.80;;;33.20;42.20;;;;;;6108724;23;20517;-72
2023/06/14 12:45:23;;;;;;;4.20;3.90;;;33.60;42.30;;;;;;6117508;23;20429;-72
2023/06/14 12:47:52;;;;;;;4.60;4.23;;;33.90;41.40;;;;;;6094170;23;20488;-72
2023/06/14 12:50:19;;;;;;;4.17;3.87;;;34.30;41.50;;;;;;6105219;23;20718;-72
2023/06/14 12:52:47;;;;;;;4.67;4.03;;;34.60;40.90;;;;;;6108451;23;20672;-72
2023/06/14 12:55:15;;;;;;;5.07;4.13;;;35.00;40.70;;;;;;6100197;23;20451;-73
2023/06/14 12:57:43;;;;;;;4.00;3.67;;;35.30;40.40;;;;;;6099651;23;20470;-72
2023/06/14 13:00:12;;;;;;;4.30;3.83;;;35.50;39.80;;;;;;6115482;23;20429;-72
2023/06/14 13:02:40;;;;;;;3.70;3.40;;;35.80;39.70;;;;;;6102993;23;20433;-71
2023/06/14 13:05:09;;;;;;;3.70;3.40;;;36.20;39.90;;;;;;6092465;23;20862;-71
2023/06/14 13:07:38;;;;;;;4.00;3.70;;;36.70;39.00;;;;;;6102430;23;20438;-72
2023/06/14 13:10:06;;;;;;;5.87;3.93;;;36.80;38.80;;;;;;6099038;23;20945;-73
2023/06/14 13:12:33;;;;;;;3.67;3.47;;;37.10;38.40;;;;;;6107886;23;20437;-72
2023/06/14 13:15:01;;;;;;;4.13;3.83;;;37.20;37.80;;;;;;6107267;23;20437;-72
2023/06/14 13:17:29;;;;;;;4.20;3.50;;;37.40;38.10;;;;;;6107148;23;20545;-72
2023/06/14 13:19:56;;;;;;;4.00;3.70;;;37.90;37.70;;;;;;6104394;23;20511;-72
2023/06/14 13:22:26;;;;;;;4.10;3.70;;;38.30;37.10;;;;;;6104386;23;20434;-72
2023/06/14 13:24:54;;;;;;;4.10;3.80;;;38.70;36.50;;;;;;6107367;23;20464;-73
2023/06/14 13:27:21;;;;;;;3.77;3.43;;;39.30;35.90;;;;;;6107583;23;20440;-72
2023/06/14 13:29:49;;;;;;;4.10;3.80;;;39.40;35.40;;;;;;6107708;23;20812;-72
2023/06/14 13:32:23;;;;;;;3.83;3.63;;;39.70;34.80;;;;;;6105674;23;20478;-72
2023/06/14 13:34:50;;;;;;;4.00;3.60;;;39.60;34.80;;;;;;6112846;23;20487;-72
2023/06/14 13:37:18;;;;;;;4.10;3.70;;;39.80;34.60;;;;;;6104167;23;20980;-72
2023/06/14 13:39:47;;;;;;;4.00;3.60;;;40.30;34.90;;;;;;6105178;23;21034;-75
2023/06/14 13:42:15;;;;;;;4.30;3.80;;;40.50;35.20;;;;;;6096874;23;20465;-75
2023/06/14 13:44:42;;;;;;;4.27;4.03;;;40.50;34.90;;;;;;6096004;23;20448;-72
2023/06/14 13:47:10;;;;;;;3.90;3.60;;;40.80;34.80;;;;;;6091928;23;20465;-71
2023/06/14 13:49:38;;;;;;;4.20;3.70;;;41.00;34.50;;;;;;6108328;23;20461;-72
2023/06/14 13:52:06;;;;;;;4.20;3.90;;;41.30;34.40;;;;;;6095127;23;20430;-72
2023/06/14 13:54:33;;;;;;;4.43;3.80;;;41.60;34.10;;;;;;6100669;23;20441;-73
2023/06/14 13:57:02;;;;;;;3.83;3.43;;;41.80;33.40;;;;;;6102927;23;20430;-72
2023/06/14 13:59:29;;;;;;;4.13;3.67;;;42.00;33.30;;;;;;6101798;23;20544;-73
2023/06/14 14:01:57;;;;;;;3.93;3.70;;;42.00;32.90;;;;;;6098165;23;20437;-72
2023/06/14 14:04:24;;;;;;;5.07;3.73;;;41.90;32.90;;;;;;6097435;23;20429;-72
2023/06/14 14:06:52;;;;;;;3.87;3.57;;;41.60;32.70;;;;;;6106981;23;20422;-73
2023/06/14 14:09:20;;;;;;;3.83;3.60;;;41.40;33.00;;;;;;6104011;23;20511;-73
2023/06/14 14:11:48;;;;;;;4.17;3.97;;;41.10;33.30;;;;;;6095012;23;20445;-73
2023/06/14 14:14:17;;;;;;;4.00;3.73;;;41.00;33.00;;;;;;6109924;23;20437;-71
2023/06/14 14:16:45;;;;;;;3.97;3.60;;;40.70;33.20;;;;;;6103675;23;20438;-71
2023/06/14 14:19:14;;;;;;;3.97;3.63;;;40.70;33.50;;;;;;6095261;23;20576;-72
2023/06/14 14:21:42;;;;;;;3.70;3.50;;;41.00;33.50;;;;;;6103133;23;20438;-71
2023/06/14 14:24:09;;;;;;;3.87;3.50;;;41.30;33.30;;;;;;6096849;23;20446;-71
2023/06/14 14:26:37;;;;;;;3.73;3.53;;;41.30;33.00;;;;;;6099242;23;20508;-70
2023/06/14 14:29:04;;;;;;;3.73;3.53;;;41.80;32.90;;;;;;6110297;23;20469;-72
2023/06/14 14:31:33;;;;;;;4.13;3.83;;;41.70;32.70;;;;;;6101800;23;20434;-72
2023/06/14 14:34:01;;;;;;;3.97;3.77;;;41.00;32.80;;;;;;6102582;23;20434;-72
2023/06/14 14:36:29;;;;;;;3.57;3.37;;;40.30;33.20;;;;;;6097932;23;21099;-72
2023/06/14 14:38:57;;;;;;;4.17;3.97;;;39.40;33.40;;;;;;6107867;23;20488;-71
2023/06/14 14:41:24;;;;;;;3.87;3.57;;;39.20;34.20;;;;;;6100455;23;20434;-72
2023/06/14 14:43:54;;;;;;;4.77;4.37;;;39.00;34.00;;;;;;6101454;23;21011;-73
2023/06/14 14:46:22;;;;;;;4.40;4.00;;;38.40;34.10;;;;;;6104147;23;20511;-72
2023/06/14 14:48:51;;;;;;;3.83;3.53;;;37.90;34.80;;;;;;6097685;23;20458;-75